sensor_id;sensor_type;location;lat;lon;timestamp;temperature;humidity
6863;DHT22;3470;48.738;9.616;2022-10-17T17:15:02;18.40;99.90
6863;DHT22;3470;48.738;9.616;2022-10-17T17:17:28;18.00;99.90
6863;DHT22;3470;48.738;9.616;2022-10-17T17:19:53;17.80;99.90
6863;DHT22;3470;48.738;9.616;2022-10-17T17:22:20;17.70;99.90
6863;DHT22;3470;48.738;9.616;2022-10-17T17:24:45;17.70;99.90
6863;DHT22;3470;48.738;9.616;2022-10-17T17:27:11;17.70;99.90
6863;DHT22;3470;48.738;9.616;2022-10-17T17:29:37;17.70;99.90
6863;DHT22;3470;48.738;9.616;2022-10-17T17:32:02;17.70;99.90
6863;DHT22;3470;48.738;9.616;2022-10-17T17:34:28;17.80;99.90
6863;DHT22;3470;48.738;9.616;2022-10-17T17:36:53;17.70;99.90
6863;DHT22;3470;48.738;9.616;2022-10-17T17:39:19;17.60;99.90
6863;DHT22;3470;48.738;9.616;2022-10-17T17:41:44;17.40;99.90
6863;DHT22;3470;48.738;9.616;2022-10-17T17:44:13;17.30;99.90
6863;DHT22;3470;48.738;9.616;2022-10-17T17:46:39;17.10;99.90
6863;DHT22;3470;48.738;9.616;2022-10-17T17:49:08;17.00;99.90
6863;DHT22;3470;48.738;9.616;2022-10-17T17:51:34;17.00;99.90
6863;DHT22;3470;48.738;9.616;2022-10-17T17:54:02;16.90;99.90
6863;DHT22;3470;48.738;9.616;2022-10-17T17:56:28;16.90;99.90
6863;DHT22;3470;48.738;9.616;2022-10-17T17:58:59;16.80;99.90
6863;DHT22;3470;48.738;9.616;2022-10-17T18:01:28;16.80;99.90
6863;DHT22;3470;48.738;9.616;2022-10-17T18:03:55;16.70;99.90
6863;DHT22;3470;48.738;9.616;2022-10-17T18:06:21;16.80;99.90
6863;DHT22;3470;48.738;9.616;2022-10-17T18:08:52;16.80;99.90
6863;DHT22;3470;48.738;9.616;2022-10-17T18:11:18;16.80;99.90
6863;DHT22;3470;48.738;9.616;2022-10-17T18:13:44;16.80;99.90
6863;DHT22;3470;48.738;9.616;2022-10-17T18:16:10;16.90;99.90
6863;DHT22;3470;48.738;9.616;2022-10-17T18:18:43;16.80;99.90
6863;DHT22;3470;48.738;9.616;2022-10-17T18:21:10;16.70;99.90
6863;DHT22;3470;48.738;9.616;2022-10-17T18:23:40;16.70;99.90
6863;DHT22;3470;48.738;9.616;2022-10-17T18:26:06;16.60;99.90
6863;DHT22;3470;48.738;9.616;2022-10-17T18:28:34;16.60;99.90
6863;DHT22;3470;48.738;9.616;2022-10-17T18:31:08;16.50;99.90
6863;DHT22;3470;48.738;9.616;2022-10-17T18:33:34;16.50;99.90
6863;DHT22;3470;48.738;9.616;2022-10-17T18:36:04;16.50;99.90
6863;DHT22;3470;48.738;9.616;2022-10-17T18:38:31;16.50;99.90
6863;DHT22;3470;48.738;9.616;2022-10-17T18:41:07;16.60;99.90
6863;DHT22;3470;48.738;9.616;2022-10-17T18:43:35;16.50;99.90
6863;DHT22;3470;48.738;9.616;2022-10-17T18:46:04;16.40;99.90
6863;DHT22;3470;48.738;9.616;2022-10-17T18:48:31;16.30;99.90
6863;DHT22;3470;48.738;9.616;2022-10-17T18:50:57;16.10;99.90
6863;DHT22;3470;48.738;9.616;2022-10-17T18:53:22;15.90;99.90
6863;DHT22;3470;48.738;9.616;2022-10-17T18:55:49;15.90;99.90
6863;DHT22;3470;48.738;9.616;2022-10-17T18:58:15;15.90;99.90
6863;DHT22;3470;48.738;9.616;2022-10-17T19:00:44;15.90;99.90
6863;DHT22;3470;48.738;9.616;2022-10-17T19:03:10;15.90;99.90
6863;DHT22;3470;48.738;9.616;2022-10-17T19:05:39;15.90;99.90
6863;DHT22;3470;48.738;9.616;2022-10-17T19:08:05;15.90;99.90
6863;DHT22;3470;48.738;9.616;2022-10-17T19:10:33;15.80;99.90
6863;DHT22;3470;48.738;9.616;2022-10-17T19:12:59;15.80;99.90
6863;DHT22;3470;48.738;9.616;2022-10-17T19:15:26;15.70;99.90
6863;DHT22;3470;48.738;9.616;2022-10-17T19:17:51;15.70;99.90
6863;DHT22;3470;48.738;9.616;2022-10-17T19:20:17;15.70;99.90
6863;DHT22;3470;48.738;9.616;2022-10-17T19:22:43;15.60;99.90
6863;DHT22;3470;48.738;9.616;2022-10-17T19:25:08;15.60;99.90
6863;DHT22;3470;48.738;9.616;2022-10-17T19:27:34;15.50;99.90
6863;DHT22;3470;48.738;9.616;2022-10-17T19:30:00;15.50;99.90
6863;DHT22;3470;48.738;9.616;2022-10-17T19:32:25;15.50;99.90
6863;DHT22;3470;48.738;9.616;2022-10-17T19:34:51;15.60;99.90
6863;DHT22;3470;48.738;9.616;2022-10-17T19:37:16;15.50;99.90
6863;DHT22;3470;48.738;9.616;2022-10-17T19:39:42;15.50;99.90
6863;DHT22;3470;48.738;9.616;2022-10-17T19:42:07;15.50;99.90
6863;DHT22;3470;48.738;9.616;2022-10-17T19:44:33;15.40;99.90
6863;DHT22;3470;48.738;9.616;2022-10-17T19:46:59;15.40;99.90
6863;DHT22;3470;48.738;9.616;2022-10-17T19:49:25;15.20;99.90
6863;DHT22;3470;48.738;9.616;2022-10-17T19:51:50;15.10;99.90
6863;DHT22;3470;48.738;9.616;2022-10-17T19:54:16;15.10;99.90
6863;DHT22;3470;48.738;9.616;2022-10-17T19:56:43;15.10;99.90
6863;DHT22;3470;48.738;9.616;2022-10-17T19:59:11;15.10;99.90
6863;DHT22;3470;48.738;9.616;2022-10-17T20:01:37;15.10;99.90
6863;DHT22;3470;48.738;9.616;2022-10-17T20:04:03;15.10;99.90
6863;DHT22;3470;48.738;9.616;2022-10-17T20:06:29;15.10;99.90
6863;DHT22;3470;48.738;9.616;2022-10-17T20:08:55;15.10;99.90
6863;DHT22;3470;48.738;9.616;2022-10-17T20:11:25;15.10;99.90
6863;DHT22;3470;48.738;9.616;2022-10-17T20:13:52;15.10;99.90
6863;DHT22;3470;48.738;9.616;2022-10-17T20:16:27;15.00;99.90
6863;DHT22;3470;48.738;9.616;2022-10-17T20:18:54;15.00;99.90
6863;DHT22;3470;48.738;9.616;2022-10-17T20:21:23;15.10;99.90
6863;DHT22;3470;48.738;9.616;2022-10-17T20:23:49;15.00;99.90
6863;DHT22;3470;48.738;9.616;2022-10-17T20:26:20;14.90;99.90
6863;DHT22;3470;48.738;9.616;2022-10-17T20:28:46;14.90;99.90
6863;DHT22;3470;48.738;9.616;2022-10-17T20:31:12;14.90;99.90
6863;DHT22;3470;48.738;9.616;2022-10-17T20:33:37;14.90;99.90
6863;DHT22;3470;48.738;9.616;2022-10-17T20:36:04;15.00;99.90
6863;DHT22;3470;48.738;9.616;2022-10-17T20:38:30;15.10;99.90
6863;DHT22;3470;48.738;9.616;2022-10-17T20:41:00;15.20;99.90
6863;DHT22;3470;48.738;9.616;2022-10-17T20:43:26;15.20;99.90
6863;DHT22;3470;48.738;9.616;2022-10-17T20:45:51;15.10;99.90
6863;DHT22;3470;48.738;9.616;2022-10-17T20:48:17;15.10;99.90
6863;DHT22;3470;48.738;9.616;2022-10-17T20:50:43;15.00;99.90
6863;DHT22;3470;48.738;9.616;2022-10-17T20:53:10;14.90;99.90
6863;DHT22;3470;48.738;9.616;2022-10-17T20:55:35;14.90;99.90
6863;DHT22;3470;48.738;9.616;2022-10-17T20:58:01;14.80;99.90
6863;DHT22;3470;48.738;9.616;2022-10-17T21:00:27;14.80;99.90
6863;DHT22;3470;48.738;9.616;2022-10-17T21:02:52;14.60;99.90
6863;DHT22;3470;48.738;9.616;2022-10-17T21:05:18;14.60;99.90
6863;DHT22;3470;48.738;9.616;2022-10-17T21:07:43;14.40;99.90
6863;DHT22;3470;48.738;9.616;2022-10-17T21:10:09;14.40;99.90
6863;DHT22;3470;48.738;9.616;2022-10-17T21:12:35;14.40;99.90
6863;DHT22;3470;48.738;9.616;2022-10-17T21:15:00;14.30;99.90
6863;DHT22;3470;48.738;9.616;2022-10-17T21:17:26;14.30;99.90
6863;DHT22;3470;48.738;9.616;2022-10-17T21:19:52;14.20;99.90
6863;DHT22;3470;48.738;9.616;2022-10-17T21:22:18;14.20;99.90
6863;DHT22;3470;48.738;9.616;2022-10-17T21:24:43;14.20;99.90
6863;DHT22;3470;48.738;9.616;2022-10-17T21:27:14;14.10;99.90
6863;DHT22;3470;48.738;9.616;2022-10-17T21:29:40;14.10;99.90
6863;DHT22;3470;48.738;9.616;2022-10-17T21:32:05;14.10;99.90
6863;DHT22;3470;48.738;9.616;2022-10-17T21:34:32;14.10;99.90
6863;DHT22;3470;48.738;9.616;2022-10-17T21:36:58;14.10;99.90
6863;DHT22;3470;48.738;9.616;2022-10-17T21:39:23;14.00;99.90
6863;DHT22;3470;48.738;9.616;2022-10-17T21:41:49;14.00;99.90
6863;DHT22;3470;48.738;9.616;2022-10-17T21:44:17;13.90;99.90
6863;DHT22;3470;48.738;9.616;2022-10-17T21:46:43;14.00;99.90
6863;DHT22;3470;48.738;9.616;2022-10-17T21:49:15;14.00;99.90
6863;DHT22;3470;48.738;9.616;2022-10-17T21:51:41;13.90;99.90
6863;DHT22;3470;48.738;9.616;2022-10-17T21:54:08;14.00;99.90
6863;DHT22;3470;48.738;9.616;2022-10-17T21:56:34;14.00;99.90
6863;DHT22;3470;48.738;9.616;2022-10-17T21:59:01;14.00;99.90
6863;DHT22;3470;48.738;9.616;2022-10-17T22:01:29;14.00;99.90
6863;DHT22;3470;48.738;9.616;2022-10-17T22:03:57;14.00;99.90
6863;DHT22;3470;48.738;9.616;2022-10-17T22:06:26;14.00;99.90
6863;DHT22;3470;48.738;9.616;2022-10-17T22:08:53;14.00;99.90
6863;DHT22;3470;48.738;9.616;2022-10-17T22:11:22;14.00;99.90
6863;DHT22;3470;48.738;9.616;2022-10-17T22:13:51;14.10;99.90
6863;DHT22;3470;48.738;9.616;2022-10-17T22:16:17;14.00;99.90
6863;DHT22;3470;48.738;9.616;2022-10-17T22:18:43;14.00;99.90
6863;DHT22;3470;48.738;9.616;2022-10-17T22:21:14;14.00;99.90
6863;DHT22;3470;48.738;9.616;2022-10-17T22:23:41;14.00;99.90
6863;DHT22;3470;48.738;9.616;2022-10-17T22:26:07;14.00;99.90
6863;DHT22;3470;48.738;9.616;2022-10-17T22:28:34;14.00;99.90
6863;DHT22;3470;48.738;9.616;2022-10-17T22:30:59;13.90;99.90
6863;DHT22;3470;48.738;9.616;2022-10-17T22:33:25;13.90;99.90
6863;DHT22;3470;48.738;9.616;2022-10-17T22:35:51;13.90;99.90
6863;DHT22;3470;48.738;9.616;2022-10-17T22:38:17;13.90;99.90
6863;DHT22;3470;48.738;9.616;2022-10-17T22:40:43;14.00;99.90
6863;DHT22;3470;48.738;9.616;2022-10-17T22:43:10;14.00;99.90
6863;DHT22;3470;48.738;9.616;2022-10-17T22:45:36;14.00;99.90
6863;DHT22;3470;48.738;9.616;2022-10-17T22:48:01;14.10;99.90
6863;DHT22;3470;48.738;9.616;2022-10-17T22:50:27;14.10;99.90
6863;DHT22;3470;48.738;9.616;2022-10-17T22:52:53;14.10;99.90
6863;DHT22;3470;48.738;9.616;2022-10-17T22:55:18;14.10;99.90
6863;DHT22;3470;48.738;9.616;2022-10-17T22:57:44;14.20;99.90
6863;DHT22;3470;48.738;9.616;2022-10-17T23:00:11;14.20;99.90
6863;DHT22;3470;48.738;9.616;2022-10-17T23:02:37;14.20;99.90
6863;DHT22;3470;48.738;9.616;2022-10-17T23:05:03;14.10;99.90
6863;DHT22;3470;48.738;9.616;2022-10-17T23:07:29;14.10;99.90
6863;DHT22;3470;48.738;9.616;2022-10-17T23:09:55;14.10;99.90
6863;DHT22;3470;48.738;9.616;2022-10-17T23:12:21;14.00;99.90
6863;DHT22;3470;48.738;9.616;2022-10-17T23:14:46;14.00;99.90
6863;DHT22;3470;48.738;9.616;2022-10-17T23:17:12;13.90;99.90
6863;DHT22;3470;48.738;9.616;2022-10-17T23:19:38;13.80;99.90
6863;DHT22;3470;48.738;9.616;2022-10-17T23:22:05;13.70;99.90
6863;DHT22;3470;48.738;9.616;2022-10-17T23:24:31;13.70;99.90
6863;DHT22;3470;48.738;9.616;2022-10-17T23:26:57;13.60;99.90
6863;DHT22;3470;48.738;9.616;2022-10-17T23:29:23;13.50;99.90
6863;DHT22;3470;48.738;9.616;2022-10-17T23:31:51;13.50;99.90
6863;DHT22;3470;48.738;9.616;2022-10-17T23:34:17;13.40;99.90
6863;DHT22;3470;48.738;9.616;2022-10-17T23:36:43;13.40;99.90
6863;DHT22;3470;48.738;9.616;2022-10-17T23:39:10;13.40;99.90
6863;DHT22;3470;48.738;9.616;2022-10-17T23:41:36;13.30;99.90
6863;DHT22;3470;48.738;9.616;2022-10-17T23:44:01;13.30;99.90
6863;DHT22;3470;48.738;9.616;2022-10-17T23:46:27;13.30;99.90
6863;DHT22;3470;48.738;9.616;2022-10-17T23:48:52;13.20;99.90
6863;DHT22;3470;48.738;9.616;2022-10-17T23:51:18;13.20;99.90
6863;DHT22;3470;48.738;9.616;2022-10-17T23:53:44;13.10;99.90
6863;DHT22;3470;48.738;9.616;2022-10-17T23:56:10;13.10;99.90
6863;DHT22;3470;48.738;9.616;2022-10-17T23:58:36;13.20;99.90
